createdAt,value
2023-04-04T00:00:54.650Z,95.50
2023-04-04T00:03:24.434Z,95.40
2023-04-04T00:05:53.169Z,95.50
2023-04-04T00:08:21.861Z,95.70
2023-04-04T00:10:50.201Z,95.50
2023-04-04T00:13:18.502Z,96.00
2023-04-04T00:15:47.029Z,96.00
2023-04-04T00:18:15.483Z,96.40
2023-04-04T00:20:45.030Z,96.70
2023-04-04T00:23:13.492Z,96.50
2023-04-04T00:25:41.888Z,96.50
2023-04-04T00:28:10.151Z,97.20
2023-04-04T00:30:39.606Z,97.10
2023-04-04T00:33:08.125Z,97.90
2023-04-04T00:35:37.058Z,97.60
2023-04-04T00:38:07.638Z,97.40
2023-04-04T00:40:41.872Z,98.00
2023-04-04T00:43:10.696Z,97.70
2023-04-04T00:45:39.001Z,98.00
2023-04-04T00:48:08.369Z,97.80
2023-04-04T00:50:37.780Z,97.80
2023-04-04T00:53:07.551Z,98.40
2023-04-04T00:55:39.771Z,98.90
2023-04-04T00:58:08.962Z,99.00
2023-04-04T01:00:38.680Z,99.00
2023-04-04T01:03:10.302Z,99.10
2023-04-04T01:05:38.884Z,99.00
2023-04-04T01:08:08.798Z,99.10
2023-04-04T01:10:37.804Z,99.20
2023-04-04T01:13:06.651Z,99.20
2023-04-04T01:15:34.872Z,99.40
2023-04-04T01:18:04.981Z,99.30
2023-04-04T01:20:38.300Z,99.60
2023-04-04T01:23:08.348Z,99.90
2023-04-04T01:25:38.312Z,99.50
2023-04-04T01:28:11.025Z,99.60
2023-04-04T01:30:41.292Z,99.70
2023-04-04T01:33:20.446Z,99.90
2023-04-04T01:35:58.805Z,99.90
2023-04-04T01:38:34.019Z,99.90
2023-04-04T01:41:07.773Z,99.90
2023-04-04T01:43:37.725Z,99.90
2023-04-04T01:46:07.300Z,99.90
2023-04-04T01:48:37.345Z,99.90
2023-04-04T01:51:08.620Z,99.90
2023-04-04T01:53:37.406Z,99.90
2023-04-04T01:56:07.188Z,99.90
2023-04-04T01:58:36.509Z,99.90
2023-04-04T02:01:04.773Z,99.90
2023-04-04T02:03:33.167Z,99.90
2023-04-04T02:06:01.732Z,99.90
2023-04-04T02:08:30.091Z,99.90
2023-04-04T02:10:59.676Z,99.90
2023-04-04T02:13:29.915Z,99.90
2023-04-04T02:16:00.200Z,99.90
2023-04-04T02:18:28.422Z,99.90
2023-04-04T02:20:57.795Z,99.90
2023-04-04T02:23:26.151Z,99.90
2023-04-04T02:25:54.478Z,99.90
2023-04-04T02:28:22.720Z,99.90
2023-04-04T02:30:52.441Z,99.90
2023-04-04T02:33:20.663Z,99.90
2023-04-04T02:35:50.039Z,99.90
2023-04-04T02:38:18.320Z,99.90
2023-04-04T02:40:47.928Z,99.90
2023-04-04T02:43:16.726Z,99.90
2023-04-04T02:45:45.458Z,99.90
2023-04-04T02:48:25.826Z,99.90
2023-04-04T02:50:56.273Z,99.90
2023-04-04T02:53:24.604Z,99.90
2023-04-04T02:55:55.768Z,99.90
2023-04-04T02:58:24.093Z,99.90
2023-04-04T03:00:55.861Z,99.90
2023-04-04T03:03:29.968Z,99.90
2023-04-04T03:06:00.211Z,99.90
2023-04-04T03:08:29.150Z,99.90
2023-04-04T03:11:00.042Z,99.90
2023-04-04T03:13:28.615Z,99.90
2023-04-04T03:16:02.681Z,99.90
2023-04-04T03:18:36.076Z,99.90
2023-04-04T03:21:04.853Z,99.90
2023-04-04T03:23:33.103Z,99.90
2023-04-04T03:26:02.201Z,99.90
2023-04-04T03:28:30.692Z,99.90
2023-04-04T03:31:05.141Z,99.90
2023-04-04T03:33:38.371Z,99.90
2023-04-04T03:36:12.553Z,99.90
2023-04-04T03:38:41.071Z,99.90
2023-04-04T03:41:11.208Z,99.90
2023-04-04T03:43:39.456Z,99.90
2023-04-04T03:46:08.332Z,99.90
2023-04-04T03:48:38.229Z,99.90
2023-04-04T03:51:09.552Z,99.90
2023-04-04T03:53:38.815Z,99.90
2023-04-04T03:56:07.232Z,99.90
2023-04-04T03:58:37.187Z,99.90
2023-04-04T04:01:05.457Z,99.90
2023-04-04T04:03:33.916Z,99.90
2023-04-04T04:06:03.666Z,99.90
2023-04-04T04:08:31.866Z,99.90
2023-04-04T04:11:06.072Z,99.90
2023-04-04T04:13:36.030Z,99.90
2023-04-04T04:16:04.804Z,99.90
2023-04-04T04:18:33.538Z,99.90
2023-04-04T04:21:04.085Z,99.90
2023-04-04T04:23:33.408Z,99.90
2023-04-04T04:26:01.796Z,99.90
2023-04-04T04:28:34.136Z,99.90
2023-04-04T04:31:07.972Z,99.90
2023-04-04T04:33:42.486Z,99.90
2023-04-04T04:36:12.629Z,99.90
2023-04-04T04:38:50.016Z,99.90
2023-04-04T04:41:18.352Z,99.90
2023-04-04T04:43:50.541Z,99.90
2023-04-04T04:46:18.796Z,99.90
2023-04-04T04:48:47.488Z,99.90
2023-04-04T04:51:17.839Z,99.90
2023-04-04T04:53:51.772Z,99.90
2023-04-04T04:56:20.672Z,99.90
2023-04-04T04:58:51.742Z,99.90
2023-04-04T05:01:26.838Z,99.90
2023-04-04T05:03:57.299Z,99.90
2023-04-04T05:06:34.804Z,99.90
2023-04-04T05:09:04.082Z,99.90
2023-04-04T05:11:38.464Z,99.90
2023-04-04T05:14:09.034Z,99.90
2023-04-04T05:16:42.830Z,99.90
2023-04-04T05:19:11.120Z,99.90
2023-04-04T05:21:47.547Z,99.90
2023-04-04T05:24:27.580Z,99.90
2023-04-04T05:26:56.286Z,99.90
2023-04-04T05:29:24.870Z,99.90
2023-04-04T05:31:53.678Z,99.90
2023-04-04T05:34:24.158Z,99.90
2023-04-04T05:36:54.416Z,99.90
2023-04-04T05:39:23.045Z,99.90
2023-04-04T05:42:02.487Z,99.90
2023-04-04T05:44:34.933Z,99.90
2023-04-04T05:47:03.270Z,99.90
2023-04-04T05:49:31.610Z,99.90
2023-04-04T05:52:03.711Z,99.90
2023-04-04T05:54:33.084Z,99.90
2023-04-04T05:57:05.057Z,99.90
2023-04-04T05:59:42.193Z,99.90
2023-04-04T06:02:13.457Z,99.90
2023-04-04T06:04:46.467Z,99.90
2023-04-04T06:07:21.121Z,99.90
2023-04-04T06:09:51.958Z,99.90
2023-04-04T06:12:21.106Z,99.90
2023-04-04T06:14:49.729Z,99.90
2023-04-04T06:17:21.608Z,99.90
2023-04-04T06:19:49.783Z,99.90
2023-04-04T06:22:18.681Z,99.90
2023-04-04T06:24:52.085Z,99.90
2023-04-04T06:27:20.900Z,99.90
2023-04-04T06:29:49.274Z,99.90
2023-04-04T06:32:21.838Z,99.90
2023-04-04T06:34:50.308Z,99.90
2023-04-04T06:37:24.643Z,99.90
2023-04-04T06:40:00.281Z,99.90
2023-04-04T06:42:29.744Z,99.90
2023-04-04T06:45:03.580Z,99.90
2023-04-04T06:47:33.162Z,99.90
2023-04-04T06:50:03.333Z,99.90
2023-04-04T06:52:31.553Z,99.90
2023-04-04T06:55:01.172Z,99.90
2023-04-04T06:57:29.344Z,99.90
2023-04-04T06:59:57.657Z,99.90
2023-04-04T07:02:25.952Z,99.90
2023-04-04T07:04:54.150Z,99.90
2023-04-04T07:07:22.474Z,99.90
2023-04-04T07:09:50.817Z,99.90
2023-04-04T07:12:20.407Z,99.90
2023-04-04T07:14:48.647Z,99.90
2023-04-04T07:17:24.206Z,99.90
2023-04-04T07:19:53.580Z,99.90
2023-04-04T07:22:21.778Z,99.90
2023-04-04T07:24:49.902Z,99.90
2023-04-04T07:27:18.090Z,99.90
2023-04-04T07:29:47.607Z,99.90
2023-04-04T07:32:16.091Z,99.90
2023-04-04T07:34:44.569Z,99.90
2023-04-04T07:37:12.873Z,99.90
2023-04-04T07:39:41.984Z,99.90
2023-04-04T07:42:10.316Z,99.90
2023-04-04T07:44:38.520Z,99.90
2023-04-04T07:47:10.343Z,99.90
2023-04-04T07:49:38.843Z,99.90
2023-04-04T07:52:07.343Z,99.90
2023-04-04T07:54:35.566Z,99.90
2023-04-04T07:57:05.547Z,99.90
2023-04-04T07:59:33.766Z,99.90
2023-04-04T08:02:02.142Z,99.90
2023-04-04T08:04:31.838Z,99.90
2023-04-04T08:07:00.105Z,99.90
2023-04-04T08:09:34.381Z,99.90
2023-04-04T08:12:02.657Z,99.90
2023-04-04T08:14:31.386Z,99.90
2023-04-04T08:16:59.591Z,99.90
2023-04-04T08:19:27.816Z,99.90
2023-04-04T08:21:57.767Z,99.90
2023-04-04T08:24:27.112Z,99.90
2023-04-04T08:27:04.563Z,99.90
2023-04-04T08:29:34.494Z,99.90
2023-04-04T08:32:02.803Z,99.90
2023-04-04T08:34:31.212Z,99.90
2023-04-04T08:37:00.691Z,99.90
2023-04-04T08:39:28.882Z,99.90
2023-04-04T08:42:02.694Z,99.90
2023-04-04T08:44:32.110Z,99.90
2023-04-04T08:47:01.241Z,99.90
2023-04-04T08:49:33.175Z,99.90
2023-04-04T08:52:04.698Z,99.90
2023-04-04T08:54:35.264Z,99.90
2023-04-04T08:57:04.114Z,99.90
2023-04-04T08:59:32.851Z,99.90
2023-04-04T09:02:06.666Z,99.90
2023-04-04T09:04:34.969Z,99.90
2023-04-04T09:07:06.212Z,99.90
2023-04-04T09:09:35.234Z,99.90
2023-04-04T09:12:04.345Z,99.90
2023-04-04T09:14:33.476Z,99.90
2023-04-04T09:17:01.789Z,99.90
2023-04-04T09:19:29.940Z,99.90
2023-04-04T09:21:59.005Z,99.90
2023-04-04T09:24:39.363Z,99.90
2023-04-04T09:27:09.578Z,99.90
2023-04-04T09:29:39.348Z,99.90
2023-04-04T09:32:10.077Z,99.90
2023-04-04T09:34:38.681Z,99.90
2023-04-04T09:37:08.098Z,99.90
2023-04-04T09:39:40.510Z,99.90
2023-04-04T09:42:09.703Z,99.90
2023-04-04T09:44:38.297Z,99.90
2023-04-04T09:49:59.748Z,99.10
2023-04-04T09:52:28.565Z,98.90
2023-04-04T09:54:59.922Z,99.90
2023-04-04T09:57:31.146Z,99.90
2023-04-04T10:00:01.362Z,99.70
2023-04-04T10:02:31.847Z,98.70
2023-04-04T10:07:33.636Z,98.90
2023-04-04T10:10:07.249Z,99.30
2023-04-04T10:12:35.719Z,98.90
2023-04-04T10:15:04.349Z,99.20
2023-04-04T10:17:38.815Z,98.70
2023-04-04T10:20:09.462Z,99.10
2023-04-04T10:22:39.086Z,97.70
2023-04-04T10:25:10.304Z,97.60
2023-04-04T10:27:38.962Z,97.80
2023-04-04T10:30:08.820Z,97.60
2023-04-04T10:32:45.981Z,96.10
2023-04-04T10:35:14.976Z,96.60
2023-04-04T10:37:46.750Z,97.10
2023-04-04T10:40:19.592Z,97.30
2023-04-04T10:42:48.254Z,96.30
2023-04-04T10:45:21.509Z,97.10
2023-04-04T10:47:51.791Z,96.90
2023-04-04T10:50:21.964Z,94.90
2023-04-04T10:52:51.624Z,95.40
2023-04-04T10:55:21.538Z,96.20
2023-04-04T10:57:52.931Z,96.20
2023-04-04T11:00:23.640Z,95.80
2023-04-04T11:02:57.269Z,95.30
2023-04-04T11:05:26.914Z,94.40
2023-04-04T11:10:36.230Z,92.30
2023-04-04T11:13:13.862Z,87.20
2023-04-04T11:15:56.970Z,83.40
2023-04-04T11:18:48.926Z,84.10
2023-04-04T11:21:19.930Z,76.00
2023-04-04T11:24:19.288Z,82.70
2023-04-04T11:26:48.921Z,75.60
2023-04-04T11:29:53.392Z,76.70
2023-04-04T11:32:50.115Z,70.80
2023-04-04T11:35:25.022Z,67.90
2023-04-04T11:38:05.453Z,65.00
2023-04-04T11:40:39.151Z,58.90
2023-04-04T11:43:13.422Z,59.40
2023-04-04T11:45:45.795Z,59.40
2023-04-04T11:48:17.156Z,56.10
2023-04-04T11:50:49.793Z,59.80
2023-04-04T11:53:18.289Z,57.70
2023-04-04T11:55:50.404Z,57.80
2023-04-04T11:58:20.706Z,54.80
2023-04-04T12:00:49.079Z,53.00
2023-04-04T12:03:18.771Z,52.20
2023-04-04T12:05:48.785Z,49.30
2023-04-04T12:08:18.101Z,48.50
2023-04-04T12:10:46.378Z,47.80
2023-04-04T12:13:14.682Z,47.80
2023-04-04T12:15:45.104Z,48.90
2023-04-04T12:18:22.966Z,45.20
2023-04-04T12:20:52.899Z,42.00
2023-04-04T12:23:21.895Z,44.20
2023-04-04T12:25:54.814Z,43.70
2023-04-04T12:28:23.535Z,42.30
2023-04-04T12:30:53.376Z,43.00
2023-04-04T12:33:22.303Z,42.60
2023-04-04T12:35:54.820Z,44.20
2023-04-04T12:38:23.504Z,42.80
2023-04-04T12:40:52.924Z,41.90
2023-04-04T12:43:21.756Z,40.80
2023-04-04T12:45:52.869Z,41.80
2023-04-04T12:48:22.986Z,39.60
2023-04-04T12:50:53.420Z,42.20
2023-04-04T12:55:58.057Z,37.10
2023-04-04T12:58:28.376Z,38.10
2023-04-04T13:01:02.053Z,37.30
2023-04-04T13:03:30.459Z,38.00
2023-04-04T13:06:00.002Z,38.40
2023-04-04T13:08:28.400Z,38.70
2023-04-04T13:11:04.939Z,36.60
2023-04-04T13:13:38.849Z,33.00
2023-04-04T13:16:10.004Z,34.70
2023-04-04T13:18:41.868Z,33.50
2023-04-04T13:21:11.543Z,35.40
2023-04-04T13:23:41.029Z,34.00
2023-04-04T13:26:10.916Z,35.50
2023-04-04T13:28:39.740Z,35.30
2023-04-04T13:31:11.110Z,34.30
2023-04-04T13:33:40.342Z,33.70
2023-04-04T13:36:09.263Z,33.60
2023-04-04T13:38:37.516Z,32.90
2023-04-04T13:41:05.855Z,33.10
2023-04-04T13:43:34.082Z,32.90
2023-04-04T13:46:02.571Z,32.20
2023-04-04T13:48:32.235Z,32.50
2023-04-04T13:51:00.505Z,32.10
2023-04-04T13:53:28.630Z,31.70
2023-04-04T13:56:16.798Z,31.60
2023-04-04T13:58:45.927Z,31.60
2023-04-04T14:01:14.260Z,30.90
2023-04-04T14:03:43.964Z,30.30
2023-04-04T14:06:12.397Z,30.00
2023-04-04T14:08:40.604Z,29.90
2023-04-04T14:11:08.963Z,30.00
2023-04-04T14:13:37.308Z,30.00
2023-04-04T14:16:06.145Z,29.50
2023-04-04T14:18:34.745Z,29.20
2023-04-04T14:21:06.460Z,28.20
2023-04-04T14:23:34.719Z,28.30
2023-04-04T14:26:04.610Z,27.80
2023-04-04T14:28:33.668Z,28.20
2023-04-04T14:31:01.896Z,28.40
2023-04-04T14:33:30.120Z,28.50
2023-04-04T14:35:58.612Z,28.10
2023-04-04T14:38:28.331Z,27.40
2023-04-04T14:40:56.457Z,27.70
2023-04-04T14:43:24.657Z,28.40
2023-04-04T14:45:52.939Z,28.00
2023-04-04T14:48:21.425Z,28.50
2023-04-04T14:50:49.605Z,29.70
2023-04-04T14:53:18.416Z,29.80
2023-04-04T14:55:48.096Z,29.40
2023-04-04T14:58:16.637Z,28.90
2023-04-04T15:00:46.077Z,28.30
2023-04-04T15:03:14.301Z,27.40
2023-04-04T15:05:42.833Z,27.20
2023-04-04T15:08:11.431Z,28.10
2023-04-04T15:10:39.967Z,26.90
2023-04-04T15:13:10.101Z,27.50
2023-04-04T15:15:38.575Z,27.70
2023-04-04T15:18:07.015Z,28.00
2023-04-04T15:20:39.974Z,27.20
2023-04-04T15:23:08.727Z,27.30
2023-04-04T15:25:37.232Z,27.00
2023-04-04T15:28:05.445Z,26.80
2023-04-04T15:30:35.216Z,27.00
2023-04-04T15:33:03.487Z,26.70
2023-04-04T15:35:31.885Z,26.70
2023-04-04T15:38:00.225Z,26.80
2023-04-04T15:40:28.399Z,26.60
2023-04-04T15:42:57.115Z,26.30
2023-04-04T15:45:25.665Z,27.00
2023-04-04T15:47:55.272Z,26.90
2023-04-04T15:50:23.480Z,26.30
2023-04-04T15:52:51.660Z,26.00
2023-04-04T15:55:21.935Z,26.30
2023-04-04T15:57:50.577Z,26.00
2023-04-04T16:00:19.285Z,25.90
2023-04-04T16:02:47.741Z,26.00
2023-04-04T16:05:17.487Z,25.50
2023-04-04T16:07:45.864Z,26.00
2023-04-04T16:10:14.105Z,26.00
2023-04-04T16:12:42.309Z,25.50
2023-04-04T16:15:12.054Z,25.60
2023-04-04T16:17:40.322Z,25.40
2023-04-04T16:20:09.716Z,25.40
2023-04-04T16:22:39.463Z,25.20
2023-04-04T16:25:09.014Z,24.90
2023-04-04T16:27:37.226Z,25.40
2023-04-04T16:30:06.195Z,25.20
2023-04-04T16:32:34.618Z,25.30
2023-04-04T16:35:03.008Z,25.70
2023-04-04T16:37:31.561Z,26.20
2023-04-04T16:40:01.429Z,26.00
2023-04-04T16:42:29.768Z,26.40
2023-04-04T16:44:58.453Z,26.20
2023-04-04T16:47:27.667Z,26.00
2023-04-04T16:49:56.625Z,25.90
2023-04-04T16:52:25.068Z,25.60
2023-04-04T16:54:54.353Z,25.50
2023-04-04T16:57:24.070Z,25.80
2023-04-04T16:59:52.508Z,25.70
2023-04-04T17:02:20.948Z,26.30
2023-04-04T17:04:49.266Z,25.60
2023-04-04T17:07:17.627Z,26.10
2023-04-04T17:09:47.362Z,26.30
2023-04-04T17:12:16.949Z,26.30
2023-04-04T17:14:46.934Z,26.50
2023-04-04T17:17:15.504Z,26.50
2023-04-04T17:19:44.551Z,26.60
2023-04-04T17:22:13.303Z,26.80
2023-04-04T17:24:41.515Z,27.00
2023-04-04T17:27:09.975Z,27.30
2023-04-04T17:29:38.185Z,28.10
2023-04-04T17:32:07.856Z,29.10
2023-04-04T17:34:37.185Z,29.70
2023-04-04T17:37:06.049Z,30.40
2023-04-04T17:39:34.390Z,31.50
2023-04-04T17:42:03.313Z,32.30
2023-04-04T17:44:35.018Z,33.40
2023-04-04T17:47:03.236Z,33.60
2023-04-04T17:49:32.943Z,34.20
2023-04-04T17:52:04.005Z,34.70
2023-04-04T17:54:32.264Z,35.50
2023-04-04T17:57:00.528Z,36.00
2023-04-04T17:59:29.027Z,36.20
2023-04-04T18:01:57.982Z,36.60
2023-04-04T18:04:26.423Z,38.10
2023-04-04T18:06:56.064Z,38.10
2023-04-04T18:09:25.011Z,38.40
2023-04-04T18:11:53.753Z,38.90
2023-04-04T18:14:22.304Z,39.80
2023-04-04T18:16:50.696Z,40.50
2023-04-04T18:19:19.155Z,41.10
2023-04-04T18:21:49.055Z,41.30
2023-04-04T18:24:18.690Z,41.40
2023-04-04T18:26:46.887Z,41.90
2023-04-04T18:29:16.715Z,42.40
2023-04-04T18:31:45.059Z,42.80
2023-04-04T18:34:15.136Z,42.70
2023-04-04T18:36:43.802Z,43.10
2023-04-04T18:39:12.186Z,42.90
2023-04-04T18:41:41.970Z,43.50
2023-04-04T18:44:10.315Z,43.90
2023-04-04T18:46:39.746Z,44.30
2023-04-04T18:49:08.133Z,44.60
2023-04-04T18:51:36.807Z,44.70
2023-04-04T18:54:05.776Z,45.40
2023-04-04T18:56:34.122Z,45.70
2023-04-04T18:59:04.278Z,45.70
2023-04-04T19:01:33.691Z,45.80
2023-04-04T19:04:04.625Z,46.10
2023-04-04T19:06:36.944Z,46.10
2023-04-04T19:09:08.839Z,46.20
2023-04-04T19:11:38.993Z,46.90
2023-04-04T19:14:09.489Z,47.20
2023-04-04T19:16:38.437Z,47.20
2023-04-04T19:19:07.192Z,47.20
2023-04-04T19:21:35.952Z,47.40
2023-04-04T19:24:04.984Z,47.40
2023-04-04T19:26:33.740Z,48.40
2023-04-04T19:29:02.648Z,48.50
2023-04-04T19:31:34.367Z,48.40
2023-04-04T19:34:03.584Z,48.40
2023-04-04T19:36:36.652Z,48.70
2023-04-04T19:39:06.481Z,48.70
2023-04-04T19:41:37.521Z,48.40
2023-04-04T19:44:09.062Z,48.70
2023-04-04T19:46:39.062Z,48.20
2023-04-04T19:49:12.041Z,48.30
2023-04-04T19:51:49.900Z,49.00
2023-04-04T19:54:27.480Z,49.00
2023-04-04T19:57:02.379Z,49.50
2023-04-04T19:59:59.669Z,49.30
2023-04-04T20:02:54.437Z,49.60
2023-04-04T20:05:59.076Z,49.20
2023-04-04T20:08:36.773Z,49.50
2023-04-04T20:11:06.988Z,49.80
2023-04-04T20:13:37.294Z,50.70
2023-04-04T20:16:10.588Z,50.40
2023-04-04T20:18:42.428Z,51.10
2023-04-04T20:21:12.563Z,51.10
2023-04-04T20:23:53.374Z,51.20
2023-04-04T20:26:42.429Z,51.50
2023-04-04T20:29:12.990Z,52.00
2023-04-04T20:31:43.883Z,51.90
2023-04-04T20:34:41.377Z,52.10
2023-04-04T20:37:12.470Z,51.90
2023-04-04T20:39:47.985Z,52.30
2023-04-04T20:42:34.764Z,52.60
2023-04-04T20:45:32.908Z,53.30
2023-04-04T20:48:06.823Z,53.60
2023-04-04T20:50:47.512Z,54.20
2023-04-04T20:53:20.248Z,53.80
2023-04-04T20:55:50.373Z,53.90
2023-04-04T20:58:28.146Z,54.90
2023-04-04T21:00:58.770Z,55.60
2023-04-04T21:03:37.764Z,54.90
2023-04-04T21:06:16.354Z,54.70
2023-04-04T21:08:46.767Z,54.90
2023-04-04T21:11:18.991Z,55.90
2023-04-04T21:13:47.388Z,56.00
2023-04-04T21:16:17.720Z,56.00
2023-04-04T21:18:47.113Z,56.40
2023-04-04T21:21:18.812Z,56.20
2023-04-04T21:23:52.982Z,56.80
2023-04-04T21:26:29.526Z,56.80
2023-04-04T21:28:59.605Z,57.30
2023-04-04T21:31:30.741Z,57.70
2023-04-04T21:34:07.832Z,58.40
2023-04-04T21:36:37.547Z,58.00
2023-04-04T21:39:10.898Z,58.10
2023-04-04T21:41:39.507Z,57.90
2023-04-04T21:44:09.415Z,59.90
2023-04-04T21:46:39.681Z,59.80
2023-04-04T21:49:09.051Z,58.90
2023-04-04T21:51:38.678Z,60.10
2023-04-04T21:54:07.040Z,61.20
2023-04-04T21:56:35.839Z,59.70
2023-04-04T21:59:06.665Z,60.70
2023-04-04T22:01:35.098Z,60.70
2023-04-04T22:04:03.324Z,60.40
2023-04-04T22:06:31.752Z,60.60
2023-04-04T22:09:01.895Z,60.70
2023-04-04T22:11:30.515Z,61.10
2023-04-04T22:14:04.653Z,60.70
2023-04-04T22:16:36.942Z,60.90
2023-04-04T22:19:05.722Z,62.30
2023-04-04T22:21:36.601Z,63.70
2023-04-04T22:24:07.503Z,64.10
2023-04-04T22:26:35.945Z,63.40
2023-04-04T22:29:06.163Z,65.70
2023-04-04T22:31:35.213Z,65.40
2023-04-04T22:34:04.005Z,67.10
2023-04-04T22:36:34.384Z,65.60
2023-04-04T22:39:03.119Z,65.40
2023-04-04T22:41:32.950Z,66.70
2023-04-04T22:44:01.428Z,68.50
2023-04-04T22:46:30.010Z,69.10
2023-04-04T22:49:06.435Z,68.20
2023-04-04T22:51:45.405Z,67.90
2023-04-04T22:54:15.604Z,68.30
2023-04-04T22:56:45.544Z,68.10
2023-04-04T22:59:14.131Z,68.00
2023-04-04T23:01:42.781Z,68.90
2023-04-04T23:04:11.205Z,71.10
2023-04-04T23:06:39.551Z,70.00
2023-04-04T23:09:08.780Z,73.40
2023-04-04T23:11:37.648Z,75.70
2023-04-04T23:14:09.621Z,74.40
2023-04-04T23:16:38.473Z,77.10
2023-04-04T23:19:06.739Z,77.50
2023-04-04T23:21:35.049Z,82.00
2023-04-04T23:24:03.733Z,79.10
2023-04-04T23:26:32.624Z,79.40
2023-04-04T23:29:02.138Z,80.10
2023-04-04T23:31:31.857Z,81.60
2023-04-04T23:34:00.686Z,81.80
2023-04-04T23:36:29.168Z,81.90
2023-04-04T23:38:57.468Z,83.70
2023-04-04T23:41:26.334Z,84.90
2023-04-04T23:43:54.646Z,84.50
2023-04-04T23:46:23.954Z,87.90
2023-04-04T23:48:53.646Z,85.90
2023-04-04T23:51:22.138Z,86.30
2023-04-04T23:53:50.377Z,88.60
2023-04-04T23:56:18.588Z,88.40
2023-04-04T23:58:47.117Z,87.70
